Terminal Aerodrome Forecast
Issued by NWS

Home | Current Version | Previous Version | Text Only | Print | Product List | Glossary On
Versions: 1 2 3 4 5 6 7 8 9 10 11 12 13
125
FTUS43 KICT 161140
TAFCNU
TAF
KCNU 161140Z 1612/1712 19013KT P6SM SKC
     FM161600 20019G26KT P6SM SKC
     FM170000 17010KT P6SM SCT100 BKN200
     FM170600 17009KT P6SM VCSH SCT025 OVC040=

USA.gov is the U.S. government's official web portal to all federal, state and local government web resources and services.